Dongsha Dao, China
Current Conditions -  °F | °C
As of 4:00 AM on Friday 24 Oct 2014 (Local Time) from ZGOW Reporting Station
Broken Clouds Broken Clouds  
Wind Chill: 72°   Ceiling: 3300
Heat Index: 72°   Visibility: 6mi
Dew Point: 64°   Wind: 4mph
Humidity: 78%   Direction: 70°ENE
Pressure: 30"   Gusts: NA
Location:  20.67°N, 116.72°E
Report Text: ZGOW 232000Z 07002MPS 9999 BKN033 22/18 Q1016 NOSIG
Loading
Personal Weather Stations






























Interactive Weather Map
Tropical Storm Tracking
New forecast layout! Learn more

10-Day Weather Forecast

Advertisements
Track Severe Weather on mobile